createdAt,value
2019-05-07T00:08:12.204Z,94.50
2019-05-07T00:10:58.942Z,94.50
2019-05-07T00:14:03.150Z,94.60
2019-05-07T00:56:42.847Z,94.80
2019-05-07T00:59:46.512Z,94.60
2019-05-07T01:02:53.638Z,94.80
2019-05-07T01:13:37.667Z,94.60
2019-05-07T01:20:27.990Z,94.50
2019-05-07T01:30:43.180Z,94.70
2019-05-07T02:47:23.707Z,96.50
2019-05-07T04:31:14.026Z,96.90
2019-05-07T04:38:19.552Z,96.40
2019-05-07T04:42:03.701Z,96.80
2019-05-07T05:50:13.409Z,96.20
2019-05-07T05:53:32.725Z,95.80
2019-05-07T06:03:48.500Z,95.60
2019-05-07T06:06:28.107Z,95.50
2019-05-07T06:09:09.797Z,95.60
2019-05-07T06:11:52.074Z,95.60
2019-05-07T06:14:45.211Z,95.30
2019-05-07T06:17:22.281Z,95.80
2019-05-07T06:19:56.524Z,94.90
2019-05-07T06:22:43.707Z,94.40
2019-05-07T06:25:15.643Z,94.20
2019-05-07T06:27:43.463Z,93.70
2019-05-07T06:30:12.096Z,93.40
2019-05-07T06:32:39.913Z,93.90
2019-05-07T06:35:07.611Z,93.30
2019-05-07T06:37:35.469Z,93.20
2019-05-07T06:40:29.385Z,93.30
2019-05-07T06:43:23.489Z,93.20
2019-05-07T06:45:53.497Z,93.20
2019-05-07T06:48:34.767Z,93.80
2019-05-07T06:50:57.143Z,94.10
2019-05-07T06:53:26.880Z,93.70
2019-05-07T06:55:56.336Z,93.30
2019-05-07T06:58:26.216Z,93.50
2019-05-07T07:01:29.143Z,93.00
2019-05-07T07:04:19.148Z,92.80
2019-05-07T07:07:27.564Z,93.10
2019-05-07T07:10:22.665Z,92.70
2019-05-07T07:12:50.574Z,92.70
2019-05-07T07:15:23.032Z,92.10
2019-05-07T07:17:52.380Z,92.40
2019-05-07T07:20:21.879Z,92.50
2019-05-07T07:22:52.073Z,92.40
2019-05-07T07:25:22.917Z,91.50
2019-05-07T07:27:52.149Z,91.40
2019-05-07T07:30:41.958Z,92.00
2019-05-07T07:33:12.121Z,92.00
2019-05-07T07:35:42.735Z,92.10
2019-05-07T07:38:28.498Z,92.00
2019-05-07T07:41:05.401Z,91.60
2019-05-07T07:43:35.843Z,91.20
2019-05-07T07:49:35.209Z,90.00
2019-05-07T07:52:23.018Z,90.00
2019-05-07T07:59:24.389Z,88.00
2019-05-07T08:02:42.498Z,88.20
2019-05-07T08:05:16.222Z,88.20
2019-05-07T08:08:36.385Z,87.00
2019-05-07T08:11:05.090Z,86.80
2019-05-07T08:13:54.093Z,82.90
2019-05-07T08:16:22.264Z,82.70
2019-05-07T08:18:52.525Z,83.00
2019-05-07T08:21:28.664Z,84.30
2019-05-07T08:24:43.698Z,82.20
2019-05-07T08:27:12.797Z,83.70
2019-05-07T08:29:43.134Z,78.60
2019-05-07T08:32:37.947Z,79.60
2019-05-07T08:35:25.064Z,77.30
2019-05-07T08:37:59.015Z,75.80
2019-05-07T08:40:27.886Z,75.40
2019-05-07T08:42:58.277Z,73.20
2019-05-07T08:45:44.705Z,70.60
2019-05-07T08:48:46.620Z,70.90
2019-05-07T08:51:22.350Z,69.90
2019-05-07T08:54:04.928Z,69.30
2019-05-07T08:56:39.422Z,68.70
2019-05-07T08:59:09.329Z,64.80
2019-05-07T09:06:11.755Z,59.50
2019-05-07T09:20:27.619Z,55.60
2019-05-07T09:23:33.832Z,55.30
2019-05-07T09:30:56.433Z,54.60
2019-05-07T09:33:33.132Z,54.40
2019-05-07T09:36:23.283Z,55.70
2019-05-07T09:38:59.007Z,54.30
2019-05-07T09:41:37.525Z,53.80
2019-05-07T09:44:15.786Z,54.00
2019-05-07T09:50:14.824Z,53.50
2019-05-07T09:53:04.343Z,52.90
2019-05-07T09:55:42.554Z,51.70
2019-05-07T09:58:12.516Z,50.00
2019-05-07T10:00:42.507Z,48.60
2019-05-07T10:03:12.642Z,50.40
2019-05-07T10:05:42.799Z,51.80
2019-05-07T10:08:12.773Z,52.30
2019-05-07T10:10:41.707Z,50.20
2019-05-07T10:13:18.819Z,47.30
2019-05-07T10:15:46.844Z,48.30
2019-05-07T10:18:16.261Z,50.40
2019-05-07T10:20:44.257Z,49.50
2019-05-07T10:23:22.962Z,48.20
2019-05-07T10:25:52.527Z,50.30
2019-05-07T10:28:22.724Z,48.90
2019-05-07T10:30:52.359Z,49.20
2019-05-07T10:33:22.707Z,50.10
2019-05-07T10:35:52.691Z,49.50
2019-05-07T10:38:21.870Z,50.70
2019-05-07T10:40:50.254Z,50.00
2019-05-07T10:43:18.676Z,48.80
2019-05-07T10:45:58.360Z,52.00
2019-05-07T10:48:40.743Z,49.70
2019-05-07T10:51:08.438Z,49.40
2019-05-07T10:53:36.090Z,49.80
2019-05-07T10:56:03.921Z,46.90
2019-05-07T10:58:32.165Z,45.40
2019-05-07T11:00:59.959Z,47.10
2019-05-07T11:03:27.783Z,46.80
2019-05-07T11:05:55.485Z,47.50
2019-05-07T11:08:25.671Z,48.00
2019-05-07T11:10:52.948Z,45.00
2019-05-07T11:13:21.885Z,47.00
2019-05-07T11:15:52.351Z,47.30
2019-05-07T11:18:28.674Z,46.30
2019-05-07T11:20:56.413Z,44.30
2019-05-07T11:23:24.455Z,47.50
2019-05-07T11:25:53.575Z,48.50
2019-05-07T11:28:33.066Z,48.00
2019-05-07T11:31:07.950Z,46.20
2019-05-07T11:33:37.777Z,46.30
2019-05-07T11:36:46.341Z,45.10
2019-05-07T11:39:19.226Z,44.90
2019-05-07T11:45:37.488Z,45.10
2019-05-07T11:48:05.857Z,49.00
2019-05-07T11:51:01.495Z,48.60
2019-05-07T11:53:23.311Z,48.60
2019-05-07T11:55:52.660Z,49.10
2019-05-07T11:58:21.958Z,47.60
2019-05-07T12:00:58.270Z,47.10
2019-05-07T12:03:32.430Z,46.30
2019-05-07T12:06:02.186Z,46.40
2019-05-07T12:09:03.094Z,46.70
2019-05-07T12:11:32.230Z,45.30
2019-05-07T12:14:01.881Z,45.20
2019-05-07T12:16:31.869Z,46.00
2019-05-07T12:19:03.072Z,46.80
2019-05-07T12:21:33.837Z,47.90
2019-05-07T12:24:06.408Z,48.60
2019-05-07T12:26:48.234Z,48.10
2019-05-07T12:29:17.850Z,46.60
2019-05-07T12:31:59.505Z,46.20
2019-05-07T12:34:42.393Z,48.30
2019-05-07T12:37:15.652Z,46.60
2019-05-07T12:39:44.854Z,48.30
2019-05-07T12:42:16.008Z,49.90
2019-05-07T12:44:45.427Z,48.20
2019-05-07T12:47:13.291Z,47.90
2019-05-07T12:49:42.892Z,46.40
2019-05-07T12:52:24.087Z,47.30
2019-05-07T12:55:05.327Z,45.80
2019-05-07T12:57:33.358Z,47.40
2019-05-07T13:00:19.655Z,48.80
2019-05-07T13:03:07.904Z,48.50
2019-05-07T13:05:36.030Z,47.50
2019-05-07T13:08:04.360Z,48.10
2019-05-07T13:10:32.619Z,46.20
2019-05-07T13:13:02.185Z,46.70
2019-05-07T13:15:32.489Z,46.20
2019-05-07T13:18:02.738Z,47.10
2019-05-07T13:20:32.015Z,46.60
2019-05-07T13:23:00.015Z,48.30
2019-05-07T13:25:33.108Z,46.30
2019-05-07T13:27:58.421Z,46.70
2019-05-07T13:30:26.238Z,47.00
2019-05-07T13:32:55.878Z,46.50
2019-05-07T13:35:25.472Z,47.20
2019-05-07T13:38:15.870Z,47.10
2019-05-07T13:41:02.194Z,47.60
2019-05-07T13:43:35.291Z,48.00
2019-05-07T13:46:12.124Z,48.50
2019-05-07T13:48:43.971Z,48.10
2019-05-07T13:51:12.197Z,47.70
2019-05-07T13:53:39.844Z,47.90
2019-05-07T13:56:48.801Z,47.50
2019-05-07T13:59:55.011Z,48.90
2019-05-07T14:02:24.644Z,47.40
2019-05-07T14:08:11.950Z,48.20
2019-05-07T14:11:03.155Z,47.60
2019-05-07T14:13:35.731Z,49.30
2019-05-07T14:16:12.075Z,47.10
2019-05-07T14:19:08.124Z,46.20
2019-05-07T14:21:47.305Z,45.70
2019-05-07T14:24:27.772Z,48.70
2019-05-07T14:27:02.060Z,48.30
2019-05-07T14:29:34.470Z,47.60
2019-05-07T14:32:34.098Z,46.90
2019-05-07T14:36:06.227Z,46.80
2019-05-07T14:38:42.611Z,48.60
2019-05-07T14:41:18.397Z,46.80
2019-05-07T14:44:13.182Z,46.30
2019-05-07T14:47:44.562Z,46.80
2019-05-07T14:50:26.281Z,47.30
2019-05-07T14:52:54.795Z,47.80
2019-05-07T14:55:22.160Z,48.20
2019-05-07T14:57:52.451Z,47.60
2019-05-07T15:00:27.372Z,46.00
2019-05-07T15:03:01.924Z,47.20
2019-05-07T15:05:33.621Z,47.00
2019-05-07T15:08:10.505Z,45.40
2019-05-07T15:10:34.769Z,46.20
2019-05-07T15:13:03.053Z,45.70
2019-05-07T15:15:38.327Z,46.50
2019-05-07T15:18:22.823Z,46.70
2019-05-07T15:20:54.176Z,46.00
2019-05-07T15:23:42.459Z,44.70
2019-05-07T15:26:12.657Z,45.80
2019-05-07T15:28:42.106Z,45.70
2019-05-07T15:31:18.290Z,46.20
2019-05-07T15:33:46.129Z,46.80
2019-05-07T15:36:13.938Z,46.10
2019-05-07T15:38:42.902Z,46.80
2019-05-07T15:41:10.806Z,46.70
2019-05-07T15:43:38.494Z,48.10
2019-05-07T15:46:06.173Z,47.20
2019-05-07T15:48:33.805Z,47.50
2019-05-07T15:51:01.507Z,47.50
2019-05-07T15:53:44.386Z,46.60
2019-05-07T15:56:12.526Z,47.10
2019-05-07T15:58:42.354Z,46.50
2019-05-07T16:01:12.909Z,45.20
2019-05-07T16:03:43.101Z,45.60
2019-05-07T16:06:12.692Z,45.80
2019-05-07T16:08:49.008Z,46.30
2019-05-07T16:11:15.712Z,45.40
2019-05-07T16:13:49.341Z,45.80
2019-05-07T16:16:17.110Z,45.70
2019-05-07T16:19:12.674Z,46.40
2019-05-07T16:21:42.550Z,45.80
2019-05-07T16:24:12.088Z,46.20
2019-05-07T16:27:04.913Z,46.90
2019-05-07T16:30:23.252Z,53.60
2019-05-07T16:33:20.981Z,52.70
2019-05-07T16:35:57.592Z,47.50
2019-05-07T16:38:45.585Z,49.70
2019-05-07T16:41:42.937Z,48.00
2019-05-07T16:44:35.328Z,47.90
2019-05-07T16:47:03.668Z,45.60
2019-05-07T16:49:32.738Z,48.10
2019-05-07T16:52:05.292Z,46.00
2019-05-07T16:54:30.804Z,45.90
2019-05-07T16:57:26.708Z,46.60
2019-05-07T16:59:57.518Z,45.90
2019-05-07T17:02:32.166Z,46.40
2019-05-07T17:05:13.575Z,46.60
2019-05-07T17:07:48.863Z,46.40
2019-05-07T17:10:17.863Z,46.60
2019-05-07T17:12:46.337Z,46.70
2019-05-07T17:15:14.705Z,47.10
2019-05-07T17:17:42.934Z,47.30
2019-05-07T17:20:13.938Z,47.20
2019-05-07T17:22:51.925Z,47.50
2019-05-07T17:25:54.168Z,47.80
2019-05-07T17:28:22.999Z,48.30
2019-05-07T17:30:57.024Z,48.60
2019-05-07T17:33:31.971Z,48.30
2019-05-07T17:36:03.341Z,47.90
2019-05-07T17:38:37.904Z,48.40
2019-05-07T17:41:14.999Z,47.90
2019-05-07T17:44:04.683Z,48.00
2019-05-07T17:46:47.385Z,48.40
2019-05-07T17:57:08.657Z,50.50
2019-05-07T18:00:24.652Z,51.90
2019-05-07T18:04:06.099Z,52.70
2019-05-07T18:07:03.507Z,53.00
2019-05-07T18:09:48.242Z,53.40
2019-05-07T18:12:26.094Z,53.40
2019-05-07T18:15:06.585Z,54.00
2019-05-07T18:21:32.580Z,54.80
2019-05-07T18:24:17.882Z,55.30
2019-05-07T18:26:54.353Z,55.50
2019-05-07T18:29:33.945Z,55.80
2019-05-07T18:32:12.445Z,56.00
2019-05-07T18:35:16.053Z,56.30
2019-05-07T18:38:47.086Z,56.70
2019-05-07T18:41:55.008Z,56.80
2019-05-07T18:44:43.856Z,57.20
2019-05-07T18:48:18.801Z,57.60
2019-05-07T18:55:08.349Z,58.10
2019-05-07T18:58:02.779Z,58.40
2019-05-07T19:00:34.888Z,59.00
2019-05-07T19:03:05.783Z,59.40
2019-05-07T19:05:37.358Z,59.50
2019-05-07T19:08:19.552Z,59.80
2019-05-07T19:10:55.938Z,60.00
2019-05-07T19:17:48.130Z,61.10
2019-05-07T19:20:59.027Z,62.00
2019-05-07T19:23:37.264Z,63.10
2019-05-07T19:26:05.554Z,63.40
2019-05-07T19:28:36.531Z,64.00
2019-05-07T19:31:08.029Z,64.50
2019-05-07T19:33:36.254Z,65.40
2019-05-07T19:36:04.660Z,66.10
2019-05-07T19:38:44.985Z,66.40
2019-05-07T19:41:15.814Z,66.70
2019-05-07T19:43:48.726Z,67.00
2019-05-07T19:46:19.306Z,67.30
2019-05-07T19:48:47.766Z,67.90
2019-05-07T19:51:16.855Z,68.30
2019-05-07T19:53:45.319Z,69.10
2019-05-07T19:56:17.645Z,69.90
2019-05-07T19:59:47.734Z,70.10
2019-05-07T20:02:27.078Z,70.20
2019-05-07T20:05:03.634Z,71.10
2019-05-07T20:07:44.165Z,70.80
2019-05-07T20:10:18.091Z,71.40
2019-05-07T20:12:43.179Z,71.70
2019-05-07T20:15:11.055Z,71.70
2019-05-07T20:17:41.959Z,72.70
2019-05-07T20:20:09.838Z,72.90
2019-05-07T20:22:41.846Z,73.20
2019-05-07T20:25:18.681Z,73.90
2019-05-07T20:27:41.826Z,74.30
2019-05-07T20:30:14.054Z,75.20
2019-05-07T20:33:37.713Z,75.50
2019-05-07T20:36:05.789Z,76.30
2019-05-07T20:38:33.698Z,77.00
2019-05-07T20:41:02.647Z,77.60
2019-05-07T20:43:32.301Z,77.70
2019-05-07T20:46:02.608Z,78.60
2019-05-07T20:48:36.359Z,79.40
2019-05-07T20:51:04.535Z,79.60
2019-05-07T20:53:59.988Z,79.70
2019-05-07T20:56:32.334Z,79.80
2019-05-07T20:59:00.290Z,80.00
2019-05-07T21:01:41.952Z,80.00
2019-05-07T21:04:24.501Z,80.10
2019-05-07T21:07:22.311Z,79.90
2019-05-07T21:09:53.245Z,79.70
2019-05-07T21:12:22.463Z,79.50
2019-05-07T21:15:04.272Z,79.80
2019-05-07T21:17:34.540Z,79.30
2019-05-07T21:20:07.554Z,80.30
2019-05-07T21:22:35.196Z,80.30
2019-05-07T21:25:07.391Z,80.60
2019-05-07T21:27:35.097Z,80.50
2019-05-07T21:30:05.310Z,80.30
2019-05-07T21:32:32.981Z,80.00
2019-05-07T21:35:01.077Z,79.80
2019-05-07T21:37:28.616Z,79.20
2019-05-07T21:39:56.256Z,79.60
2019-05-07T21:42:23.770Z,80.50
2019-05-07T21:44:52.632Z,80.80
2019-05-07T21:47:22.152Z,81.20
2019-05-07T21:49:49.791Z,81.40
2019-05-07T21:52:17.474Z,81.80
2019-05-07T21:55:10.239Z,81.80
2019-05-07T21:58:03.010Z,82.10
2019-05-07T22:00:42.930Z,82.40
2019-05-07T22:03:12.902Z,82.60
2019-05-07T22:05:44.098Z,82.60
2019-05-07T22:08:12.360Z,82.00
2019-05-07T22:10:39.934Z,82.00
2019-05-07T22:13:07.469Z,82.30
2019-05-07T22:15:35.226Z,82.40
2019-05-07T22:18:02.851Z,82.40
2019-05-07T22:20:31.968Z,81.50
2019-05-07T22:22:59.846Z,81.60
2019-05-07T22:25:32.687Z,81.30
2019-05-07T22:28:01.894Z,81.40
2019-05-07T22:30:36.681Z,81.50
2019-05-07T22:33:09.831Z,81.60
2019-05-07T22:35:39.936Z,81.40
2019-05-07T22:38:07.671Z,81.40
2019-05-07T22:40:35.408Z,81.30
2019-05-07T22:43:05.326Z,81.70
2019-05-07T22:45:32.936Z,82.30
2019-05-07T22:48:02.908Z,83.50
2019-05-07T22:50:37.178Z,82.80
2019-05-07T22:53:05.761Z,82.70
2019-05-07T22:55:36.487Z,82.30
2019-05-07T22:58:09.687Z,82.50
2019-05-07T23:00:50.740Z,82.40
2019-05-07T23:03:18.690Z,82.20
2019-05-07T23:05:46.365Z,82.10
2019-05-07T23:08:14.059Z,82.10
2019-05-07T23:10:42.154Z,82.40
2019-05-07T23:13:12.979Z,82.80
2019-05-07T23:15:42.806Z,82.60
2019-05-07T23:18:09.960Z,83.40
2019-05-07T23:20:37.572Z,83.90
2019-05-07T23:23:28.119Z,85.00
2019-05-07T23:25:55.763Z,85.60
2019-05-07T23:28:23.419Z,85.90
2019-05-07T23:30:51.890Z,86.30
2019-05-07T23:33:19.738Z,86.70
2019-05-07T23:35:47.455Z,86.50
2019-05-07T23:38:15.964Z,86.60
2019-05-07T23:41:12.773Z,86.40
2019-05-07T23:43:42.383Z,86.40
2019-05-07T23:46:10.094Z,86.70
2019-05-07T23:48:37.717Z,86.70
2019-05-07T23:51:05.523Z,86.70
2019-05-07T23:53:33.176Z,86.70
2019-05-07T23:56:02.776Z,86.70
2019-05-07T23:58:32.524Z,86.80
